| time (UTC) | temp F | wind direction | speed knots | gust knots | rain 1hr in | rain 24hr in | rain mn in | humidity % | barometer mb |
| 20260504160436 | 68 | 190 | 0.9 | 3.5 | 0.00 | 0.00 | 0.00 | 56 | 1006.6 |
| 20260504160337 | 68 | 188 | 1.7 | 3.5 | 0.00 | 0.00 | 0.00 | 55 | 1006.5 |
| 20260504151136 | 69 | 201 | 1.7 | 5.2 | 0.00 | 0.00 | 0.00 | 53 | 1006.4 |
| 20260504151036 | 69 | 205 | 1.7 | 5.2 | 0.00 | 0.00 | 0.00 | 52 | 1006.5 |
| 20260504150937 | 69 | 213 | 1.7 | 5.2 | 0.00 | 0.00 | 0.00 | 52 | 1006.5 |
| 20260504150836 | 69 | 214 | 1.7 | 5.2 | 0.00 | 0.00 | 0.00 | 52 | 1006.6 |
| 20260504150736 | 69 | 217 | 1.7 | 5.2 | 0.00 | 0.00 | 0.00 | 52 | 1006.6 |
| 20260504150636 | 69 | 218 | 1.7 | 5.2 | 0.00 | 0.00 | 0.00 | 51 | 1006.6 |
| 20260504150437 | 69 | 220 | 1.7 | 5.2 | 0.00 | 0.00 | 0.00 | 52 | 1006.8 |
| 20260504150336 | 69 | 222 | 1.7 | 4.3 | 0.00 | 0.00 | 0.00 | 51 | 1006.8 |
| 20260504150236 | 69 | 222 | 1.7 | 4.3 | 0.00 | 0.00 | 0.00 | 52 | 1006.8 |
| 20260504141236 | 70 | 193 | 1.7 | 5.2 | 0.00 | 0.00 | 0.00 | 52 | 1006.4 |
| 20260504141136 | 70 | 195 | 1.7 | 5.2 | 0.00 | 0.00 | 0.00 | 52 | 1006.4 |
| 20260504140737 | 70 | 206 | 1.7 | 6.1 | 0.00 | 0.00 | 0.00 | 52 | 1006.4 |
| 20260504140636 | 70 | 204 | 1.7 | 6.1 | 0.00 | 0.00 | 0.00 | 53 | 1006.5 |
| 20260504140536 | 70 | 202 | 1.7 | 6.1 | 0.00 | 0.00 | 0.00 | 53 | 1006.4 |
| 20260504140436 | 70 | 199 | 1.7 | 6.1 | 0.00 | 0.00 | 0.00 | 52 | 1006.4 |
| 20260504140336 | 70 | 200 | 1.7 | 6.1 | 0.00 | 0.00 | 0.00 | 52 | 1006.4 |
| 20260504140136 | 70 | 200 | 1.7 | 6.1 | 0.00 | 0.00 | 0.00 | 53 | 1006.4 |
| 20260504130736 | 66 | 179 | 1.7 | 5.2 | 0.00 | 0.00 | 0.00 | 60 | 1006.9 |
| 20260504130635 | 66 | 181 | 1.7 | 3.5 | 0.00 | 0.00 | 0.00 | 60 | 1007.0 |
| 20260504130536 | 66 | 179 | 1.7 | 5.2 | 0.00 | 0.00 | 0.00 | 61 | 1006.9 |
| 20260504130435 | 66 | 176 | 1.7 | 5.2 | 0.00 | 0.00 | 0.00 | 60 | 1006.9 |
| 20260504130335 | 66 | 173 | 1.7 | 5.2 | 0.00 | 0.00 | 0.00 | 61 | 1007.0 |
| 20260504130236 | 66 | 174 | 1.7 | 5.2 | 0.00 | 0.00 | 0.00 | 61 | 1007.0 |
| 20260504130135 | 66 | 174 | 1.7 | 5.2 | 0.00 | 0.00 | 0.00 | 61 | 1006.9 |
| 20260504120136 | 62 | 164 | 1.7 | 3.5 | 0.00 | 0.00 | 0.00 | 66 | 1007.1 |
| 20260504110435 | 61 | 150 | 0.9 | 2.6 | 0.00 | 0.00 | 0.00 | 67 | 1007.1 |
| 20260504110335 | 61 | 148 | 0.9 | 2.6 | 0.00 | 0.00 | 0.00 | 67 | 1007.1 |
| 20260504110234 | 61 | 153 | 0.9 | 2.6 | 0.00 | 0.00 | 0.00 | 67 | 1007.1 |
| 20260504110135 | 61 | 154 | 0.9 | 2.6 | 0.00 | 0.00 | 0.00 | 66 | 1007.1 |
| 20260504100434 | 62 | 149 | 1.7 | 3.5 | 0.00 | 0.00 | 0.00 | 65 | 1007.2 |
| 20260504100334 | 62 | 150 | 1.7 | 3.5 | 0.00 | 0.00 | 0.00 | 65 | 1007.2 |
| 20260504100235 | 62 | 148 | 1.7 | 3.5 | 0.00 | 0.00 | 0.00 | 65 | 1007.3 |
| 20260504100135 | 62 | 147 | 1.7 | 3.5 | 0.00 | 0.00 | 0.00 | 65 | 1007.2 |
| 20260504090134 | 64 | 150 | 0.9 | 2.6 | 0.00 | 0.00 | 0.00 | 61 | 1007.4 |
| 20260504081835 | 64 | 136 | 0.9 | 2.6 | 0.00 | 0.00 | 0.00 | 61 | 1007.4 |
| 20260504081734 | 64 | 134 | 0.9 | 2.6 | 0.00 | 0.00 | 0.00 | 61 | 1007.4 |
| 20260504081634 | 64 | 133 | 0.9 | 2.6 | 0.00 | 0.00 | 0.00 | 61 | 1007.4 |
| 20260504081534 | 64 | 133 | 0.9 | 2.6 | 0.00 | 0.00 | 0.00 | 61 | 1007.4 |
| 20260504081434 | 64 | 132 | 0.9 | 2.6 | 0.00 | 0.00 | 0.00 | 61 | 1007.4 |
| 20260504081334 | 64 | 131 | 0.9 | 2.6 | 0.00 | 0.00 | 0.00 | 61 | 1007.4 |
| 20260504081133 | 63 | 129 | 0.9 | 2.6 | 0.00 | 0.00 | 0.00 | 61 | 1007.4 |
| 20260504080834 | 63 | 126 | 0.9 | 1.7 | 0.00 | 0.00 | 0.00 | 61 | 1007.4 |
| 20260504080733 | 63 | 126 | 0.9 | 1.7 | 0.00 | 0.00 | 0.00 | 61 | 1007.3 |
| 20260504080633 | 63 | 126 | 0.9 | 1.7 | 0.00 | 0.00 | 0.00 | 61 | 1007.3 |
| 20260504080534 | 63 | 126 | 0.9 | 1.7 | 0.00 | 0.00 | 0.00 | 61 | 1007.3 |
| 20260504080333 | 63 | 125 | 0.9 | 1.7 | 0.00 | 0.00 | 0.00 | 61 | 1007.3 |
| 20260504080134 | 63 | 125 | 0.9 | 1.7 | 0.00 | 0.00 | 0.00 | 61 | 1007.4 |
| 20260504070334 | 66 | 137 | 0.9 | 1.7 | 0.00 | 0.00 | 0.00 | 55 | 1007.7 |
| 20260504060134 | 66 | 312 | 0.9 | 3.5 | 0.00 | 0.00 | 0.00 | 55 | 1008.0 |
| 20260504050732 | 67 | 205 | 1.7 | 6.1 | 0.00 | 0.00 | 0.00 | 52 | 1006.9 |
| 20260504050633 | 67 | 207 | 1.7 | 6.1 | 0.00 | 0.00 | 0.00 | 52 | 1006.9 |
| 20260504050533 | 67 | 212 | 1.7 | 6.1 | 0.00 | 0.00 | 0.00 | 52 | 1006.9 |
| 20260504050433 | 67 | 212 | 1.7 | 6.1 | 0.00 | 0.00 | 0.00 | 52 | 1006.9 |
| 20260504050332 | 67 | 210 | 1.7 | 6.1 | 0.00 | 0.00 | 0.00 | 52 | 1006.9 |
| 20260504050233 | 67 | 211 | 1.7 | 6.1 | 0.00 | 0.00 | 0.00 | 52 | 1006.9 |
| 20260504050133 | 67 | 216 | 1.7 | 6.1 | 0.00 | 0.00 | 0.00 | 52 | 1006.9 |
| 20260504045933 | 67 | 222 | 1.7 | 6.1 | 0.00 | 0.00 | 0.00 | 52 | 1006.9 |
| 20260504045832 | 67 | 225 | 1.7 | 6.1 | 0.00 | 0.00 | 0.00 | 52 | 1006.9 |
| 20260504045732 | 67 | 225 | 1.7 | 3.5 | 0.00 | 0.00 | 0.00 | 52 | 1006.9 |
| 20260504045633 | 67 | 221 | 1.7 | 3.5 | 0.00 | 0.00 | 0.00 | 52 | 1006.9 |
| 20260504045533 | 67 | 216 | 1.7 | 3.5 | 0.00 | 0.00 | 0.00 | 52 | 1006.9 |
| 20260504045433 | 67 | 215 | 1.7 | 3.5 | 0.00 | 0.00 | 0.00 | 52 | 1006.8 |
| 20260504045333 | 67 | 216 | 1.7 | 2.6 | 0.00 | 0.00 | 0.00 | 51 | 1006.9 |
| 20260504045232 | 67 | 215 | 1.7 | 2.6 | 0.00 | 0.00 | 0.00 | 52 | 1006.8 |
| 20260504045133 | 67 | 215 | 1.7 | 2.6 | 0.00 | 0.00 | 0.00 | 51 | 1006.8 |
| 20260504045033 | 67 | 213 | 1.7 | 2.6 | 0.00 | 0.00 | 0.00 | 52 | 1006.8 |
| 20260504044934 | 67 | 210 | 1.7 | 5.2 | 0.00 | 0.00 | 0.00 | 51 | 1006.8 |
| 20260504044532 | 67 | 198 | 1.7 | 5.2 | 0.00 | 0.00 | 0.00 | 51 | 1006.8 |
| 20260504044432 | 67 | 195 | 1.7 | 5.2 | 0.00 | 0.00 | 0.00 | 51 | 1006.8 |
| 20260504044333 | 67 | 195 | 1.7 | 5.2 | 0.00 | 0.00 | 0.00 | 51 | 1006.8 |
| 20260504044232 | 67 | 192 | 1.7 | 5.2 | 0.00 | 0.00 | 0.00 | 51 | 1006.8 |
| 20260504044133 | 67 | 193 | 2.6 | 5.2 | 0.00 | 0.00 | 0.00 | 51 | 1006.9 |
| 20260504044033 | 67 | 196 | 2.6 | 5.2 | 0.00 | 0.00 | 0.00 | 50 | 1006.9 |
| 20260504043832 | 67 | 203 | 1.7 | 5.2 | 0.00 | 0.00 | 0.00 | 50 | 1007.0 |
| 20260504043732 | 67 | 200 | 2.6 | 5.2 | 0.00 | 0.00 | 0.00 | 50 | 1007.1 |
| 20260504043633 | 67 | 204 | 2.6 | 5.2 | 0.00 | 0.00 | 0.00 | 50 | 1007.1 |
| 20260504043532 | 67 | 205 | 2.6 | 7.8 | 0.00 | 0.00 | 0.00 | 51 | 1007.1 |
| 20260504043233 | 67 | 201 | 2.6 | 7.8 | 0.00 | 0.00 | 0.00 | 50 | 1007.2 |
| 20260504043133 | 67 | 197 | 2.6 | 7.8 | 0.00 | 0.00 | 0.00 | 50 | 1007.1 |
| 20260504043033 | 67 | 194 | 2.6 | 7.8 | 0.00 | 0.00 | 0.00 | 50 | 1007.0 |
| 20260504042932 | 67 | 195 | 2.6 | 7.8 | 0.00 | 0.00 | 0.00 | 50 | 1007.0 |
| 20260504042832 | 67 | 193 | 2.6 | 7.8 | 0.00 | 0.00 | 0.00 | 50 | 1007.2 |
| 20260504042734 | 67 | 195 | 2.6 | 7.8 | 0.00 | 0.00 | 0.00 | 50 | 1007.2 |
| 20260504042432 | 67 | 186 | 1.7 | 5.2 | 0.00 | 0.00 | 0.00 | 50 | 1007.0 |
| 20260504042333 | 67 | 188 | 1.7 | 5.2 | 0.00 | 0.00 | 0.00 | 49 | 1007.1 |
| 20260504042232 | 67 | 191 | 1.7 | 5.2 | 0.00 | 0.00 | 0.00 | 50 | 1007.3 |
| 20260504042133 | 67 | 194 | 1.7 | 5.2 | 0.00 | 0.00 | 0.00 | 50 | 1007.4 |
| 20260504041932 | 67 | 197 | 1.7 | 4.3 | 0.00 | 0.00 | 0.00 | 50 | 1007.4 |
| 20260504041832 | 67 | 197 | 1.7 | 4.3 | 0.00 | 0.00 | 0.00 | 49 | 1007.4 |
| 20260504041633 | 67 | 199 | 1.7 | 4.3 | 0.00 | 0.00 | 0.00 | 49 | 1007.4 |
| 20260504041533 | 67 | 203 | 1.7 | 4.3 | 0.00 | 0.00 | 0.00 | 49 | 1007.4 |
| 20260504041433 | 67 | 203 | 1.7 | 5.2 | 0.00 | 0.00 | 0.00 | 49 | 1007.5 |
| 20260504041332 | 67 | 202 | 1.7 | 5.2 | 0.00 | 0.00 | 0.00 | 49 | 1007.5 |
| 20260504041232 | 67 | 203 | 1.7 | 5.2 | 0.00 | 0.00 | 0.00 | 49 | 1007.6 |
| 20260504041132 | 67 | 201 | 1.7 | 5.2 | 0.00 | 0.00 | 0.00 | 49 | 1007.6 |
| 20260504041032 | 67 | 205 | 1.7 | 5.2 | 0.00 | 0.00 | 0.00 | 49 | 1007.6 |
| 20260504040932 | 67 | 200 | 1.7 | 5.2 | 0.00 | 0.00 | 0.00 | 49 | 1007.6 |
| 20260504040833 | 67 | 200 | 1.7 | 5.2 | 0.00 | 0.00 | 0.00 | 50 | 1007.6 |
| 20260504040732 | 67 | 198 | 1.7 | 5.2 | 0.00 | 0.00 | 0.00 | 50 | 1007.7 |
| 20260504040632 | 67 | 194 | 1.7 | 5.2 | 0.00 | 0.00 | 0.00 | 49 | 1007.8 |
| 20260504040433 | 67 | 197 | 1.7 | 4.3 | 0.00 | 0.00 | 0.00 | 49 | 1008.0 |
| 20260504040332 | 66 | 199 | 1.7 | 4.3 | 0.00 | 0.00 | 0.00 | 49 | 1007.9 |
| 20260504040232 | 66 | 201 | 1.7 | 4.3 | 0.00 | 0.00 | 0.00 | 49 | 1007.9 |
| 20260504040132 | 66 | 207 | 0.9 | 3.5 | 0.00 | 0.00 | 0.00 | 50 | 1008.0 |
| 20260504040033 | 66 | 208 | 0.9 | 3.5 | 0.00 | 0.00 | 0.00 | 50 | 1008.0 |
| 20260504035932 | 66 | 222 | 0.9 | 1.7 | 0.00 | 0.00 | 0.00 | 50 | 1008.0 |
| 20260504035832 | 66 | 222 | 0.9 | 1.7 | 0.00 | 0.00 | 0.00 | 50 | 1008.0 |
| 20260504035732 | 66 | 225 | 0.9 | 1.7 | 0.00 | 0.00 | 0.00 | 50 | 1008.0 |
| 20260504035633 | 66 | 234 | 0.9 | 1.7 | 0.00 | 0.00 | 0.00 | 50 | 1008.1 |
| 20260504035532 | 66 | 237 | 0.9 | 1.7 | 0.00 | 0.00 | 0.00 | 51 | 1008.1 |
| 20260504035432 | 66 | 239 | 0.9 | 1.7 | 0.00 | 0.00 | 0.00 | 51 | 1008.1 |
| 20260504035232 | 66 | 238 | 0.9 | 2.6 | 0.00 | 0.00 | 0.00 | 51 | 1008.2 |
| 20260504035132 | 66 | 237 | 0.9 | 2.6 | 0.00 | 0.00 | 0.00 | 51 | 1008.1 |
| 20260504035032 | 66 | 235 | 0.9 | 2.6 | 0.00 | 0.00 | 0.00 | 51 | 1008.1 |
| 20260504034832 | 66 | 234 | 0.9 | 2.6 | 0.00 | 0.00 | 0.00 | 51 | 1008.1 |
| 20260504034732 | 66 | 235 | 0.9 | 2.6 | 0.00 | 0.00 | 0.00 | 50 | 1008.1 |
| 20260504034532 | 66 | 238 | 0.9 | 2.6 | 0.00 | 0.00 | 0.00 | 50 | 1008.2 |
| 20260504034432 | 66 | 243 | 0.9 | 2.6 | 0.00 | 0.00 | 0.00 | 50 | 1008.2 |
| 20260504034333 | 66 | 247 | 0.0 | 2.6 | 0.00 | 0.00 | 0.00 | 50 | 1008.2 |
| 20260504034233 | 66 | 254 | 0.0 | 1.7 | 0.00 | 0.00 | 0.00 | 50 | 1008.1 |
| 20260504034132 | 66 | 264 | 0.0 | 1.7 | 0.00 | 0.00 | 0.00 | 50 | 1008.1 |
| 20260504034032 | 66 | 267 | 0.0 | 1.7 | 0.00 | 0.00 | 0.00 | 50 | 1008.1 |
| 20260504033932 | 66 | 273 | 0.0 | 1.7 | 0.00 | 0.00 | 0.00 | 50 | 1008.1 |
| 20260504033732 | 66 | 285 | 0.0 | 1.7 | 0.00 | 0.00 | 0.00 | 50 | 1008.2 |
| 20260504033533 | 66 | 306 | 0.0 | 1.7 | 0.00 | 0.00 | 0.00 | 50 | 1008.3 |
| 20260504033332 | 66 | 313 | 0.0 | 1.7 | 0.00 | 0.00 | 0.00 | 50 | 1008.4 |
| 20260504033233 | 66 | 317 | 0.0 | 1.7 | 0.00 | 0.00 | 0.00 | 50 | 1008.4 |
| 20260504033133 | 66 | 318 | 0.0 | 1.7 | 0.00 | 0.00 | 0.00 | 50 | 1008.4 |
| 20260504033032 | 66 | 318 | 0.0 | 1.7 | 0.00 | 0.00 | 0.00 | 50 | 1008.4 |
| 20260504032933 | 66 | 318 | 0.0 | 1.7 | 0.00 | 0.00 | 0.00 | 50 | 1008.4 |
| 20260504032732 | 66 | 318 | 0.0 | 1.7 | 0.00 | 0.00 | 0.00 | 49 | 1008.4 |
| 20260504032632 | 66 | 318 | 0.0 | 1.7 | 0.00 | 0.00 | 0.00 | 49 | 1008.4 |
| 20260504032431 | 66 | 307 | 0.0 | 1.7 | 0.00 | 0.00 | 0.00 | 49 | 1008.4 |
| 20260504032332 | 66 | 302 | 0.0 | 1.7 | 0.00 | 0.00 | 0.00 | 48 | 1008.4 |
| 20260504031932 | 67 | 264 | 0.0 | 1.7 | 0.00 | 0.00 | 0.00 | 48 | 1008.5 |
| 20260504031833 | 67 | 257 | 0.0 | 1.7 | 0.00 | 0.00 | 0.00 | 48 | 1008.4 |
| 20260504031732 | 67 | 255 | 0.0 | 1.7 | 0.00 | 0.00 | 0.00 | 48 | 1008.4 |
| 20260504031632 | 67 | 251 | 0.9 | 1.7 | 0.00 | 0.00 | 0.00 | 47 | 1008.4 |
| 20260504031532 | 67 | 245 | 0.9 | 2.6 | 0.00 | 0.00 | 0.00 | 47 | 1008.4 |
| 20260504031432 | 67 | 221 | 0.9 | 3.5 | 0.00 | 0.00 | 0.00 | 47 | 1008.4 |
| 20260504031332 | 67 | 202 | 0.9 | 6.1 | 0.00 | 0.00 | 0.00 | 47 | 1008.4 |
| 20260504031231 | 68 | 194 | 1.7 | 6.1 | 0.00 | 0.00 | 0.00 | 47 | 1008.3 |
| 20260504031131 | 68 | 194 | 1.7 | 6.1 | 0.00 | 0.00 | 0.00 | 46 | 1008.3 |
| 20260504030932 | 68 | 198 | 1.7 | 6.1 | 0.00 | 0.00 | 0.00 | 46 | 1008.3 |
| 20260504030832 | 68 | 197 | 1.7 | 6.1 | 0.00 | 0.00 | 0.00 | 46 | 1008.3 |
| 20260504030732 | 68 | 195 | 1.7 | 6.1 | 0.00 | 0.00 | 0.00 | 46 | 1008.3 |
| 20260504030631 | 68 | 192 | 1.7 | 6.1 | 0.00 | 0.00 | 0.00 | 46 | 1008.3 |
| 20260504030532 | 68 | 187 | 0.9 | 6.1 | 0.00 | 0.00 | 0.00 | 46 | 1008.3 |
| 20260504030432 | 68 | 190 | 0.9 | 6.1 | 0.00 | 0.00 | 0.00 | 46 | 1008.2 |
| 20260504030333 | 68 | 196 | 0.9 | 3.5 | 0.00 | 0.00 | 0.00 | 46 | 1008.2 |
| 20260504030132 | 68 | 204 | 0.9 | 2.6 | 0.00 | 0.00 | 0.00 | 47 | 1008.2 |
| 20260504030032 | 68 | 198 | 0.9 | 2.6 | 0.00 | 0.00 | 0.00 | 46 | 1008.2 |
| 20260504025932 | 68 | 200 | 0.9 | 2.6 | 0.00 | 0.00 | 0.00 | 46 | 1008.2 |
| 20260504025832 | 68 | 198 | 1.7 | 3.5 | 0.00 | 0.00 | 0.00 | 46 | 1008.2 |
| 20260504025632 | 68 | 195 | 1.7 | 3.5 | 0.00 | 0.00 | 0.00 | 46 | 1008.2 |
| 20260504025533 | 68 | 198 | 1.7 | 3.5 | 0.00 | 0.00 | 0.00 | 46 | 1008.2 |
| 20260504025433 | 68 | 195 | 1.7 | 3.5 | 0.00 | 0.00 | 0.00 | 46 | 1008.2 |
| 20260504025232 | 68 | 195 | 1.7 | 3.5 | 0.00 | 0.00 | 0.00 | 45 | 1008.2 |
| 20260504025132 | 68 | 192 | 1.7 | 3.5 | 0.00 | 0.00 | 0.00 | 45 | 1008.2 |
| 20260504025031 | 68 | 189 | 1.7 | 5.2 | 0.00 | 0.00 | 0.00 | 45 | 1008.1 |
| 20260504024931 | 68 | 192 | 0.9 | 5.2 | 0.00 | 0.00 | 0.00 | 45 | 1008.2 |
| 20260504024832 | 68 | 192 | 0.9 | 5.2 | 0.00 | 0.00 | 0.00 | 45 | 1008.1 |
| 20260504024732 | 68 | 189 | 0.9 | 5.2 | 0.00 | 0.00 | 0.00 | 45 | 1008.2 |
| 20260504024631 | 68 | 191 | 0.9 | 5.2 | 0.00 | 0.00 | 0.00 | 45 | 1008.2 |
| 20260504024532 | 69 | 195 | 1.7 | 5.2 | 0.00 | 0.00 | 0.00 | 45 | 1008.2 |
| 20260504024433 | 69 | 194 | 1.7 | 6.1 | 0.00 | 0.00 | 0.00 | 45 | 1008.2 |
| 20260504024232 | 69 | 193 | 1.7 | 6.1 | 0.00 | 0.00 | 0.00 | 45 | 1008.1 |
| 20260504024133 | 69 | 193 | 1.7 | 6.1 | 0.00 | 0.00 | 0.00 | 45 | 1008.1 |
| 20260504024031 | 69 | 193 | 1.7 | 6.1 | 0.00 | 0.00 | 0.00 | 45 | 1008.1 |
| 20260504023932 | 69 | 189 | 1.7 | 6.1 | 0.00 | 0.00 | 0.00 | 45 | 1008.1 |
| 20260504023833 | 69 | 187 | 1.7 | 6.1 | 0.00 | 0.00 | 0.00 | 44 | 1008.1 |
| 20260504023731 | 69 | 191 | 2.6 | 6.1 | 0.00 | 0.00 | 0.00 | 44 | 1008.1 |
| 20260504023631 | 69 | 190 | 2.6 | 6.1 | 0.00 | 0.00 | 0.00 | 44 | 1008.1 |
| 20260504023531 | 69 | 189 | 1.7 | 6.1 | 0.00 | 0.00 | 0.00 | 44 | 1008.1 |
| 20260504023332 | 69 | 190 | 1.7 | 4.3 | 0.00 | 0.00 | 0.00 | 44 | 1008.1 |
| 20260504023231 | 69 | 187 | 1.7 | 4.3 | 0.00 | 0.00 | 0.00 | 44 | 1008.0 |
| 20260504023132 | 69 | 187 | 1.7 | 4.3 | 0.00 | 0.00 | 0.00 | 44 | 1008.1 |
| 20260504023032 | 69 | 193 | 1.7 | 5.2 | 0.00 | 0.00 | 0.00 | 44 | 1008.1 |
| 20260504022932 | 69 | 198 | 1.7 | 5.2 | 0.00 | 0.00 | 0.00 | 44 | 1008.0 |
| 20260504022831 | 69 | 202 | 1.7 | 5.2 | 0.00 | 0.00 | 0.00 | 44 | 1008.0 |
| 20260504022631 | 69 | 195 | 1.7 | 5.2 | 0.00 | 0.00 | 0.00 | 44 | 1008.0 |
| 20260504022431 | 69 | 190 | 1.7 | 5.2 | 0.00 | 0.00 | 0.00 | 44 | 1008.0 |
| 20260504022332 | 69 | 188 | 2.6 | 5.2 | 0.00 | 0.00 | 0.00 | 44 | 1007.9 |
| 20260504022232 | 69 | 188 | 2.6 | 5.2 | 0.00 | 0.00 | 0.00 | 44 | 1008.0 |
| 20260504022031 | 69 | 184 | 2.6 | 5.2 | 0.00 | 0.00 | 0.00 | 44 | 1008.0 |
| 20260504021931 | 69 | 179 | 2.6 | 5.2 | 0.00 | 0.00 | 0.00 | 44 | 1007.9 |
| 20260504021732 | 69 | 178 | 2.6 | 5.2 | 0.00 | 0.00 | 0.00 | 44 | 1008.0 |
| 20260504021532 | 69 | 182 | 1.7 | 5.2 | 0.00 | 0.00 | 0.00 | 44 | 1007.9 |
| 20260504021432 | 69 | 182 | 1.7 | 4.3 | 0.00 | 0.00 | 0.00 | 44 | 1007.9 |
| 20260504021331 | 69 | 181 | 1.7 | 6.1 | 0.00 | 0.00 | 0.00 | 44 | 1007.9 |
| 20260504021233 | 69 | 184 | 1.7 | 6.1 | 0.00 | 0.00 | 0.00 | 43 | 1007.9 |
| 20260504021132 | 69 | 181 | 2.6 | 6.1 | 0.00 | 0.00 | 0.00 | 43 | 1007.9 |
| 20260504021031 | 69 | 179 | 2.6 | 6.1 | 0.00 | 0.00 | 0.00 | 43 | 1007.9 |
| 20260504020931 | 70 | 182 | 2.6 | 6.1 | 0.00 | 0.00 | 0.00 | 43 | 1007.9 |
| 20260504020831 | 70 | 182 | 2.6 | 6.1 | 0.00 | 0.00 | 0.00 | 43 | 1007.9 |
| 20260504020732 | 69 | 182 | 1.7 | 6.1 | 0.00 | 0.00 | 0.00 | 43 | 1007.9 |
| 20260504020633 | 70 | 182 | 1.7 | 6.1 | 0.00 | 0.00 | 0.00 | 44 | 1007.9 |
| 20260504020531 | 69 | 179 | 2.6 | 6.1 | 0.00 | 0.00 | 0.00 | 44 | 1007.9 |
| 20260504020431 | 69 | 177 | 1.7 | 6.1 | 0.00 | 0.00 | 0.00 | 44 | 1007.9 |
| 20260504020332 | 69 | 179 | 1.7 | 4.3 | 0.00 | 0.00 | 0.00 | 43 | 1007.8 |
| 20260504020232 | 69 | 176 | 1.7 | 4.3 | 0.00 | 0.00 | 0.00 | 43 | 1007.7 |
| 20260504020131 | 69 | 176 | 1.7 | 4.3 | 0.00 | 0.00 | 0.00 | 43 | 1008.0 |
| 20260504020031 | 70 | 175 | 1.7 | 3.5 | 0.00 | 0.00 | 0.00 | 43 | 1007.8 |
| 20260504015932 | 70 | 176 | 1.7 | 3.5 | 0.00 | 0.00 | 0.00 | 43 | 1007.8 |
| 20260504015831 | 70 | 175 | 1.7 | 4.3 | 0.00 | 0.00 | 0.00 | 43 | 1007.8 |
| 20260504015731 | 70 | 175 | 1.7 | 4.3 | 0.00 | 0.00 | 0.00 | 43 | 1007.8 |
| 20260504015631 | 70 | 174 | 1.7 | 4.3 | 0.00 | 0.00 | 0.00 | 43 | 1007.8 |
| 20260504015531 | 70 | 176 | 1.7 | 4.3 | 0.00 | 0.00 | 0.00 | 43 | 1007.8 |
| 20260504015433 | 70 | 176 | 1.7 | 4.3 | 0.00 | 0.00 | 0.00 | 43 | 1007.8 |
| 20260504015331 | 70 | 175 | 1.7 | 4.3 | 0.00 | 0.00 | 0.00 | 43 | 1007.8 |
| 20260504015231 | 70 | 177 | 2.6 | 4.3 | 0.00 | 0.00 | 0.00 | 43 | 1007.8 |
| 20260504015132 | 70 | 177 | 2.6 | 4.3 | 0.00 | 0.00 | 0.00 | 44 | 1007.8 |
| 20260504015031 | 70 | 179 | 2.6 | 4.3 | 0.00 | 0.00 | 0.00 | 43 | 1007.8 |
| 20260504014932 | 70 | 178 | 2.6 | 4.3 | 0.00 | 0.00 | 0.00 | 43 | 1007.8 |
| 20260504014831 | 70 | 179 | 1.7 | 4.3 | 0.00 | 0.00 | 0.00 | 43 | 1007.8 |
| 20260504014733 | 70 | 179 | 1.7 | 4.3 | 0.00 | 0.00 | 0.00 | 43 | 1007.8 |
| 20260504014431 | 70 | 177 | 1.7 | 5.2 | 0.00 | 0.00 | 0.00 | 44 | 1007.7 |
| 20260504014331 | 70 | 178 | 1.7 | 5.2 | 0.00 | 0.00 | 0.00 | 43 | 1007.7 |
| 20260504014231 | 70 | 177 | 1.7 | 5.2 | 0.00 | 0.00 | 0.00 | 43 | 1007.7 |
| 20260504014131 | 70 | 176 | 1.7 | 5.2 | 0.00 | 0.00 | 0.00 | 43 | 1007.6 |
| 20260504014031 | 70 | 175 | 1.7 | 5.2 | 0.00 | 0.00 | 0.00 | 43 | 1007.6 |
| 20260504013931 | 70 | 175 | 1.7 | 5.2 | 0.00 | 0.00 | 0.00 | 43 | 1007.5 |
| 20260504013831 | 70 | 175 | 1.7 | 5.2 | 0.00 | 0.00 | 0.00 | 43 | 1007.6 |
| 20260504013732 | 70 | 175 | 1.7 | 5.2 | 0.00 | 0.00 | 0.00 | 43 | 1007.5 |
| 20260504013531 | 70 | 176 | 1.7 | 4.3 | 0.00 | 0.00 | 0.00 | 43 | 1007.6 |
| 20260504013431 | 70 | 176 | 1.7 | 4.3 | 0.00 | 0.00 | 0.00 | 43 | 1007.6 |
| 20260504013331 | 70 | 177 | 1.7 | 4.3 | 0.00 | 0.00 | 0.00 | 43 | 1007.7 |
| 20260504013232 | 70 | 177 | 1.7 | 4.3 | 0.00 | 0.00 | 0.00 | 43 | 1007.7 |
| 20260504013031 | 70 | 178 | 1.7 | 4.3 | 0.00 | 0.00 | 0.00 | 43 | 1007.7 |
| 20260504012931 | 70 | 177 | 1.7 | 4.3 | 0.00 | 0.00 | 0.00 | 43 | 1007.7 |
| 20260504012831 | 70 | 177 | 1.7 | 4.3 | 0.00 | 0.00 | 0.00 | 43 | 1007.6 |
| 20260504012732 | 70 | 177 | 1.7 | 4.3 | 0.00 | 0.00 | 0.00 | 42 | 1007.6 |
| 20260504012632 | 70 | 177 | 1.7 | 4.3 | 0.00 | 0.00 | 0.00 | 42 | 1007.5 |
| 20260504012531 | 70 | 176 | 1.7 | 4.3 | 0.00 | 0.00 | 0.00 | 43 | 1007.5 |
| 20260504012432 | 70 | 176 | 1.7 | 4.3 | 0.00 | 0.00 | 0.00 | 42 | 1007.4 |
| 20260504012331 | 70 | 175 | 0.9 | 4.3 | 0.00 | 0.00 | 0.00 | 42 | 1007.4 |
| 20260504012232 | 70 | 174 | 0.9 | 3.5 | 0.00 | 0.00 | 0.00 | 42 | 1007.4 |
| 20260504012031 | 70 | 174 | 0.9 | 3.5 | 0.00 | 0.00 | 0.00 | 42 | 1007.5 |
| 20260504011931 | 71 | 174 | 0.9 | 2.6 | 0.00 | 0.00 | 0.00 | 41 | 1007.5 |
| 20260504011831 | 71 | 174 | 0.9 | 3.5 | 0.00 | 0.00 | 0.00 | 41 | 1007.5 |
| 20260504011732 | 71 | 173 | 0.9 | 3.5 | 0.00 | 0.00 | 0.00 | 41 | 1007.5 |
| 20260504011532 | 71 | 172 | 0.9 | 3.5 | 0.00 | 0.00 | 0.00 | 40 | 1007.5 |
| 20260504011432 | 71 | 174 | 0.9 | 3.5 | 0.00 | 0.00 | 0.00 | 40 | 1007.5 |
| 20260504011232 | 72 | 174 | 0.9 | 3.5 | 0.00 | 0.00 | 0.00 | 40 | 1007.6 |
| 20260504011131 | 72 | 175 | 0.9 | 3.5 | 0.00 | 0.00 | 0.00 | 40 | 1007.6 |
| 20260504010931 | 72 | 178 | 0.9 | 3.5 | 0.00 | 0.00 | 0.00 | 39 | 1007.6 |
| 20260504010831 | 72 | 179 | 1.7 | 3.5 | 0.00 | 0.00 | 0.00 | 39 | 1007.6 |
| 20260504010731 | 72 | 181 | 1.7 | 4.3 | 0.00 | 0.00 | 0.00 | 39 | 1007.6 |
| 20260504010631 | 72 | 181 | 1.7 | 4.3 | 0.00 | 0.00 | 0.00 | 39 | 1007.6 |
| 20260504010531 | 72 | 181 | 1.7 | 4.3 | 0.00 | 0.00 | 0.00 | 39 | 1007.5 |
| 20260504010431 | 72 | 181 | 1.7 | 4.3 | 0.00 | 0.00 | 0.00 | 39 | 1007.5 |
| 20260504010331 | 72 | 178 | 1.7 | 4.3 | 0.00 | 0.00 | 0.00 | 39 | 1007.5 |
| 20260504010232 | 72 | 179 | 1.7 | 6.1 | 0.00 | 0.00 | 0.00 | 39 | 1007.5 |
| 20260504010131 | 72 | 181 | 1.7 | 6.1 | 0.00 | 0.00 | 0.00 | 39 | 1007.6 |
| 20260504010031 | 72 | 182 | 1.7 | 6.1 | 0.00 | 0.00 | 0.00 | 39 | 1007.5 |
| 20260504005931 | 72 | 181 | 1.7 | 6.1 | 0.00 | 0.00 | 0.00 | 39 | 1007.4 |
| 20260504005831 | 72 | 182 | 1.7 | 6.1 | 0.00 | 0.00 | 0.00 | 39 | 1007.4 |
| 20260504005732 | 72 | 182 | 1.7 | 6.1 | 0.00 | 0.00 | 0.00 | 39 | 1007.4 |
| 20260504005631 | 72 | 183 | 1.7 | 6.1 | 0.00 | 0.00 | 0.00 | 38 | 1007.4 |
| 20260504005431 | 72 | 185 | 1.7 | 6.1 | 0.00 | 0.00 | 0.00 | 39 | 1007.4 |
| 20260504005231 | 72 | 187 | 1.7 | 6.1 | 0.00 | 0.00 | 0.00 | 38 | 1007.4 |
| 20260504005131 | 72 | 187 | 1.7 | 4.3 | 0.00 | 0.00 | 0.00 | 39 | 1007.4 |
| 20260504005031 | 72 | 187 | 1.7 | 4.3 | 0.00 | 0.00 | 0.00 | 38 | 1007.5 |
| 20260504004931 | 72 | 186 | 0.9 | 4.3 | 0.00 | 0.00 | 0.00 | 39 | 1007.5 |
| 20260504004731 | 72 | 182 | 0.9 | 3.5 | 0.00 | 0.00 | 0.00 | 39 | 1007.5 |
| 20260504004631 | 72 | 182 | 0.9 | 3.5 | 0.00 | 0.00 | 0.00 | 39 | 1007.5 |
| 20260504004531 | 72 | 183 | 1.7 | 3.5 | 0.00 | 0.00 | 0.00 | 39 | 1007.5 |
| 20260504004430 | 72 | 179 | 1.7 | 4.3 | 0.00 | 0.00 | 0.00 | 39 | 1007.4 |
| 20260504004331 | 72 | 181 | 1.7 | 4.3 | 0.00 | 0.00 | 0.00 | 38 | 1007.4 |
| 20260504004231 | 72 | 181 | 1.7 | 4.3 | 0.00 | 0.00 | 0.00 | 38 | 1007.4 |
| 20260504004131 | 73 | 182 | 1.7 | 4.3 | 0.00 | 0.00 | 0.00 | 38 | 1007.5 |
| 20260504004031 | 73 | 182 | 1.7 | 4.3 | 0.00 | 0.00 | 0.00 | 38 | 1007.5 |
| 20260504003931 | 73 | 181 | 0.9 | 4.3 | 0.00 | 0.00 | 0.00 | 39 | 1007.5 |
| 20260504003830 | 73 | 182 | 0.9 | 4.3 | 0.00 | 0.00 | 0.00 | 39 | 1007.5 |
| 20260504003531 | 73 | 178 | 1.7 | 4.3 | 0.00 | 0.00 | 0.00 | 38 | 1007.5 |
| 20260504003431 | 73 | 179 | 1.7 | 4.3 | 0.00 | 0.00 | 0.00 | 39 | 1007.5 |
| 20260504003331 | 73 | 183 | 1.7 | 4.3 | 0.00 | 0.00 | 0.00 | 38 | 1007.5 |
| 20260504003231 | 73 | 182 | 1.7 | 4.3 | 0.00 | 0.00 | 0.00 | 38 | 1007.5 |
| 20260504003131 | 73 | 178 | 1.7 | 4.3 | 0.00 | 0.00 | 0.00 | 38 | 1007.5 |
| 20260504003031 | 73 | 179 | 1.7 | 4.3 | 0.00 | 0.00 | 0.00 | 38 | 1007.5 |
| 20260504002931 | 73 | 178 | 1.7 | 4.3 | 0.00 | 0.00 | 0.00 | 38 | 1007.5 |
| 20260504002731 | 73 | 179 | 1.7 | 4.3 | 0.00 | 0.00 | 0.00 | 38 | 1007.5 |
| 20260504002632 | 73 | 178 | 1.7 | 4.3 | 0.00 | 0.00 | 0.00 | 38 | 1007.5 |
| 20260504002530 | 73 | 179 | 1.7 | 4.3 | 0.00 | 0.00 | 0.00 | 37 | 1007.5 |
| 20260504002431 | 73 | 179 | 1.7 | 5.2 | 0.00 | 0.00 | 0.00 | 37 | 1007.5 |
| 20260504002331 | 74 | 179 | 1.7 | 5.2 | 0.00 | 0.00 | 0.00 | 37 | 1007.4 |
| 20260504002232 | 74 | 182 | 1.7 | 5.2 | 0.00 | 0.00 | 0.00 | 37 | 1007.4 |
| 20260504001931 | 74 | 185 | 1.7 | 5.2 | 0.00 | 0.00 | 0.00 | 38 | 1007.5 |
| 20260504001831 | 74 | 185 | 1.7 | 5.2 | 0.00 | 0.00 | 0.00 | 37 | 1007.5 |
| 20260504001731 | 74 | 186 | 1.7 | 5.2 | 0.00 | 0.00 | 0.00 | 37 | 1007.5 |
| 20260504001630 | 74 | 189 | 1.7 | 5.2 | 0.00 | 0.00 | 0.00 | 37 | 1007.5 |
| 20260504001530 | 74 | 191 | 0.9 | 5.2 | 0.00 | 0.00 | 0.00 | 37 | 1007.5 |
| 20260504001432 | 74 | 193 | 0.9 | 5.2 | 0.00 | 0.00 | 0.00 | 37 | 1007.6 |
| 20260504001332 | 74 | 193 | 0.9 | 5.2 | 0.00 | 0.00 | 0.00 | 37 | 1007.6 |
| 20260504001231 | 74 | 188 | 0.9 | 3.5 | 0.00 | 0.00 | 0.00 | 37 | 1007.6 |
| 20260504001131 | 74 | 185 | 0.9 | 3.5 | 0.00 | 0.00 | 0.00 | 37 | 1007.6 |
| 20260504001032 | 74 | 184 | 1.7 | 3.5 | 0.00 | 0.00 | 0.00 | 37 | 1007.6 |
| 20260504000832 | 74 | 185 | 1.7 | 3.5 | 0.00 | 0.00 | 0.00 | 37 | 1007.6 |
| 20260504000730 | 74 | 183 | 1.7 | 3.5 | 0.00 | 0.00 | 0.00 | 37 | 1007.6 |
| 20260504000631 | 74 | 181 | 1.7 | 4.3 | 0.00 | 0.00 | 0.00 | 37 | 1007.5 |
| 20260504000531 | 74 | 179 | 1.7 | 4.3 | 0.00 | 0.00 | 0.00 | 37 | 1007.5 |
| 20260504000431 | 74 | 177 | 1.7 | 4.3 | 0.00 | 0.00 | 0.00 | 37 | 1007.5 |
| 20260504000330 | 74 | 177 | 1.7 | 4.3 | 0.00 | 0.00 | 0.00 | 37 | 1007.5 |
| 20260504000230 | 74 | 178 | 1.7 | 4.3 | 0.00 | 0.00 | 0.00 | 36 | 1007.5 |
| 20260504000131 | 74 | 181 | 1.7 | 4.3 | 0.00 | 0.00 | 0.00 | 36 | 1007.5 |
| 20260504000031 | 74 | 183 | 1.7 | 4.3 | 0.00 | 0.00 | 0.00 | 37 | 1007.5 |
| 20260503235931 | 74 | 184 | 1.7 | 4.3 | 0.00 | 0.00 | 0.00 | 37 | 1007.4 |
| 20260503235830 | 74 | 184 | 1.7 | 4.3 | 0.00 | 0.00 | 0.00 | 37 | 1007.5 |
| 20260503235730 | 74 | 186 | 1.7 | 4.3 | 0.00 | 0.00 | 0.00 | 36 | 1007.5 |
| 20260503235632 | 74 | 186 | 1.7 | 3.5 | 0.00 | 0.00 | 0.00 | 36 | 1007.6 |
| 20260503235431 | 75 | 189 | 1.7 | 4.3 | 0.00 | 0.00 | 0.00 | 36 | 1007.6 |
| 20260503235330 | 75 | 192 | 1.7 | 4.3 | 0.00 | 0.00 | 0.00 | 36 | 1007.6 |
| 20260503235131 | 75 | 192 | 1.7 | 4.3 | 0.00 | 0.00 | 0.00 | 36 | 1007.7 |
| 20260503235031 | 75 | 189 | 1.7 | 4.3 | 0.00 | 0.00 | 0.00 | 36 | 1007.7 |
| 20260503234731 | 75 | 187 | 1.7 | 4.3 | 0.00 | 0.00 | 0.00 | 36 | 1007.8 |
| 20260503234631 | 75 | 195 | 1.7 | 4.3 | 0.00 | 0.00 | 0.00 | 35 | 1007.9 |
| 20260503234532 | 75 | 195 | 0.9 | 4.3 | 0.00 | 0.00 | 0.00 | 35 | 1007.9 |
| 20260503234431 | 75 | 197 | 0.9 | 2.6 | 0.00 | 0.00 | 0.00 | 36 | 1007.9 |
| 20260503234331 | 75 | 195 | 1.7 | 2.6 | 0.00 | 0.00 | 0.00 | 36 | 1007.9 |
| 20260503234231 | 75 | 193 | 1.7 | 2.6 | 0.00 | 0.00 | 0.00 | 36 | 1007.9 |
| 20260503233830 | 75 | 198 | 0.9 | 2.6 | 0.00 | 0.00 | 0.00 | 36 | 1007.9 |
| 20260503233731 | 75 | 198 | 0.9 | 2.6 | 0.00 | 0.00 | 0.00 | 36 | 1007.8 |
| 20260503233631 | 75 | 192 | 0.9 | 2.6 | 0.00 | 0.00 | 0.00 | 37 | 1007.9 |
| 20260503233531 | 75 | 190 | 0.9 | 2.6 | 0.00 | 0.00 | 0.00 | 36 | 1007.8 |
| 20260503233431 | 75 | 185 | 1.7 | 5.2 | 0.00 | 0.00 | 0.00 | 36 | 1007.8 |
| 20260503233330 | 75 | 183 | 1.7 | 5.2 | 0.00 | 0.00 | 0.00 | 36 | 1007.8 |
| 20260503233230 | 75 | 182 | 1.7 | 5.2 | 0.00 | 0.00 | 0.00 | 36 | 1007.9 |
| 20260503233031 | 75 | 178 | 1.7 | 5.2 | 0.00 | 0.00 | 0.00 | 36 | 1007.9 |
| 20260503232930 | 75 | 177 | 1.7 | 5.2 | 0.00 | 0.00 | 0.00 | 37 | 1007.9 |
| 20260503232830 | 75 | 178 | 1.7 | 5.2 | 0.00 | 0.00 | 0.00 | 35 | 1007.9 |
| 20260503232630 | 75 | 175 | 1.7 | 5.2 | 0.00 | 0.00 | 0.00 | 35 | 1007.9 |
| 20260503232431 | 75 | 176 | 1.7 | 5.2 | 0.00 | 0.00 | 0.00 | 35 | 1007.9 |
| 20260503232330 | 75 | 176 | 1.7 | 5.2 | 0.00 | 0.00 | 0.00 | 35 | 1007.9 |
| 20260503232231 | 75 | 177 | 1.7 | 5.2 | 0.00 | 0.00 | 0.00 | 35 | 1007.9 |
| 20260503232131 | 75 | 179 | 1.7 | 5.2 | 0.00 | 0.00 | 0.00 | 35 | 1007.9 |
| 20260503231930 | 75 | 182 | 1.7 | 5.2 | 0.00 | 0.00 | 0.00 | 34 | 1007.9 |
| 20260503231831 | 75 | 183 | 1.7 | 5.2 | 0.00 | 0.00 | 0.00 | 36 | 1007.9 |
| 20260503231731 | 75 | 188 | 1.7 | 3.5 | 0.00 | 0.00 | 0.00 | 35 | 1007.9 |
| 20260503231631 | 75 | 188 | 1.7 | 4.3 | 0.00 | 0.00 | 0.00 | 35 | 1007.9 |
| 20260503231530 | 75 | 188 | 1.7 | 4.3 | 0.00 | 0.00 | 0.00 | 36 | 1007.9 |
| 20260503231431 | 75 | 188 | 1.7 | 4.3 | 0.00 | 0.00 | 0.00 | 34 | 1007.9 |
| 20260503231331 | 75 | 190 | 1.7 | 4.3 | 0.00 | 0.00 | 0.00 | 34 | 1007.9 |
| 20260503231230 | 75 | 186 | 1.7 | 5.2 | 0.00 | 0.00 | 0.00 | 34 | 1007.9 |
| 20260503231030 | 75 | 188 | 2.6 | 5.2 | 0.00 | 0.00 | 0.00 | 36 | 1007.9 |
| 20260503230930 | 75 | 185 | 2.6 | 5.2 | 0.00 | 0.00 | 0.00 | 36 | 1007.9 |
| 20260503230831 | 75 | 184 | 2.6 | 5.2 | 0.00 | 0.00 | 0.00 | 35 | 1007.9 |
| 20260503230732 | 75 | 186 | 2.6 | 5.2 | 0.00 | 0.00 | 0.00 | 34 | 1007.9 |
| 20260503230630 | 75 | 192 | 2.6 | 5.2 | 0.00 | 0.00 | 0.00 | 35 | 1007.9 |
| 20260503230530 | 75 | 193 | 2.6 | 5.2 | 0.00 | 0.00 | 0.00 | 34 | 1007.9 |
| 20260503230231 | 75 | 197 | 1.7 | 4.3 | 0.00 | 0.00 | 0.00 | 34 | 1007.9 |
| 20260503230130 | 75 | 197 | 1.7 | 4.3 | 0.00 | 0.00 | 0.00 | 34 | 1007.9 |
| 20260503225930 | 75 | 197 | 1.7 | 4.3 | 0.00 | 0.00 | 0.00 | 35 | 1008.0 |
| 20260503225830 | 75 | 202 | 1.7 | 4.3 | 0.00 | 0.00 | 0.00 | 34 | 1008.0 |
| 20260503225731 | 75 | 199 | 1.7 | 5.2 | 0.00 | 0.00 | 0.00 | 34 | 1008.0 |
| 20260503225631 | 75 | 193 | 1.7 | 5.2 | 0.00 | 0.00 | 0.00 | 35 | 1008.0 |
| 20260503225530 | 75 | 192 | 1.7 | 5.2 | 0.00 | 0.00 | 0.00 | 34 | 1008.0 |
| 20260503225430 | 75 | 193 | 1.7 | 5.2 | 0.00 | 0.00 | 0.00 | 34 | 1008.0 |
| 20260503225230 | 75 | 196 | 1.7 | 5.2 | 0.00 | 0.00 | 0.00 | 34 | 1008.1 |
| 20260503225131 | 75 | 201 | 1.7 | 5.2 | 0.00 | 0.00 | 0.00 | 34 | 1008.1 |
| 20260503224931 | 76 | 212 | 1.7 | 5.2 | 0.00 | 0.00 | 0.00 | 33 | 1008.2 |
| 20260503224830 | 76 | 209 | 1.7 | 5.2 | 0.00 | 0.00 | 0.00 | 34 | 1008.1 |
| 20260503224730 | 76 | 205 | 1.7 | 5.2 | 0.00 | 0.00 | 0.00 | 34 | 1008.2 |
| 20260503224630 | 76 | 209 | 1.7 | 5.2 | 0.00 | 0.00 | 0.00 | 34 | 1008.2 |
| 20260503224531 | 76 | 213 | 1.7 | 5.2 | 0.00 | 0.00 | 0.00 | 34 | 1008.1 |
| 20260503224430 | 76 | 218 | 1.7 | 5.2 | 0.00 | 0.00 | 0.00 | 35 | 1008.2 |
| 20260503224330 | 76 | 223 | 1.7 | 5.2 | 0.00 | 0.00 | 0.00 | 34 | 1008.1 |
| 20260503224230 | 76 | 223 | 1.7 | 5.2 | 0.00 | 0.00 | 0.00 | 34 | 1008.1 |
| 20260503224130 | 76 | 211 | 2.6 | 5.2 | 0.00 | 0.00 | 0.00 | 34 | 1008.2 |
| 20260503224030 | 76 | 204 | 2.6 | 5.2 | 0.00 | 0.00 | 0.00 | 35 | 1008.2 |
| 20260503223930 | 76 | 205 | 1.7 | 5.2 | 0.00 | 0.00 | 0.00 | 34 | 1008.1 |
| 20260503223830 | 76 | 205 | 1.7 | 5.2 | 0.00 | 0.00 | 0.00 | 34 | 1008.3 |
| 20260503223731 | 76 | 212 | 1.7 | 5.2 | 0.00 | 0.00 | 0.00 | 34 | 1008.3 |
| 20260503223630 | 76 | 213 | 1.7 | 5.2 | 0.00 | 0.00 | 0.00 | 35 | 1008.3 |
| 20260503223530 | 76 | 207 | 2.6 | 5.2 | 0.00 | 0.00 | 0.00 | 34 | 1008.2 |
| 20260503223430 | 76 | 198 | 2.6 | 6.1 | 0.00 | 0.00 | 0.00 | 34 | 1008.3 |
| 20260503223330 | 76 | 184 | 2.6 | 8.7 | 0.00 | 0.00 | 0.00 | 34 | 1008.3 |
| 20260503223231 | 76 | 181 | 2.6 | 9.6 | 0.00 | 0.00 | 0.00 | 33 | 1008.3 |
| 20260503222930 | 76 | 183 | 2.6 | 9.6 | 0.00 | 0.00 | 0.00 | 35 | 1008.3 |
| 20260503222830 | 75 | 185 | 2.6 | 9.6 | 0.00 | 0.00 | 0.00 | 34 | 1008.2 |
| 20260503222730 | 76 | 185 | 3.5 | 9.6 | 0.00 | 0.00 | 0.00 | 33 | 1008.3 |
| 20260503222631 | 76 | 185 | 2.6 | 9.6 | 0.00 | 0.00 | 0.00 | 33 | 1008.2 |
| 20260503222530 | 76 | 188 | 2.6 | 9.6 | 0.00 | 0.00 | 0.00 | 33 | 1008.2 |
| 20260503222430 | 76 | 193 | 2.6 | 9.6 | 0.00 | 0.00 | 0.00 | 33 | 1008.2 |
| 20260503222130 | 76 | 211 | 2.6 | 5.2 | 0.00 | 0.00 | 0.00 | 35 | 1008.2 |
| 20260503222030 | 76 | 205 | 2.6 | 5.2 | 0.00 | 0.00 | 0.00 | 34 | 1008.3 |
| 20260503221830 | 76 | 207 | 1.7 | 5.2 | 0.00 | 0.00 | 0.00 | 34 | 1008.4 |
| 20260503221730 | 76 | 206 | 1.7 | 5.2 | 0.00 | 0.00 | 0.00 | 33 | 1008.4 |
| 20260503221630 | 76 | 205 | 1.7 | 5.2 | 0.00 | 0.00 | 0.00 | 33 | 1008.4 |
| 20260503221530 | 76 | 208 | 1.7 | 4.3 | 0.00 | 0.00 | 0.00 | 34 | 1008.4 |
| 20260503221430 | 76 | 204 | 1.7 | 4.3 | 0.00 | 0.00 | 0.00 | 34 | 1008.5 |
| 20260503221330 | 76 | 213 | 1.7 | 4.3 | 0.00 | 0.00 | 0.00 | 34 | 1008.4 |
| 20260503221230 | 76 | 214 | 1.7 | 4.3 | 0.00 | 0.00 | 0.00 | 35 | 1008.4 |
| 20260503221130 | 76 | 218 | 1.7 | 5.2 | 0.00 | 0.00 | 0.00 | 35 | 1008.4 |
| 20260503221030 | 76 | 228 | 1.7 | 5.2 | 0.00 | 0.00 | 0.00 | 35 | 1008.4 |
| 20260503220932 | 76 | 238 | 1.7 | 5.2 | 0.00 | 0.00 | 0.00 | 35 | 1008.4 |
| 20260503220830 | 76 | 230 | 1.7 | 5.2 | 0.00 | 0.00 | 0.00 | 34 | 1008.5 |
| 20260503220730 | 76 | 231 | 1.7 | 5.2 | 0.00 | 0.00 | 0.00 | 34 | 1008.4 |
| 20260503220530 | 76 | 225 | 1.7 | 5.2 | 0.00 | 0.00 | 0.00 | 33 | 1008.4 |
| 20260503220430 | 76 | 229 | 1.7 | 5.2 | 0.00 | 0.00 | 0.00 | 34 | 1008.5 |
| 20260503220329 | 76 | 227 | 1.7 | 5.2 | 0.00 | 0.00 | 0.00 | 34 | 1008.5 |
| 20260503220230 | 76 | 231 | 1.7 | 5.2 | 0.00 | 0.00 | 0.00 | 34 | 1008.6 |
| 20260503220130 | 76 | 223 | 1.7 | 7.8 | 0.00 | 0.00 | 0.00 | 37 | 1008.5 |
| 20260503220030 | 76 | 216 | 2.6 | 7.8 | 0.00 | 0.00 | 0.00 | 34 | 1008.5 |
| 20260503215930 | 76 | 213 | 2.6 | 8.7 | 0.00 | 0.00 | 0.00 | 35 | 1008.5 |
| 20260503215730 | 76 | 202 | 2.6 | 11.3 | 0.00 | 0.00 | 0.00 | 34 | 1008.5 |
| 20260503215630 | 76 | 197 | 2.6 | 11.3 | 0.00 | 0.00 | 0.00 | 34 | 1008.6 |
| 20260503215531 | 75 | 197 | 2.6 | 11.3 | 0.00 | 0.00 | 0.00 | 33 | 1008.5 |
| 20260503215430 | 75 | 197 | 2.6 | 11.3 | 0.00 | 0.00 | 0.00 | 33 | 1008.6 |
| 20260503215329 | 75 | 196 | 2.6 | 11.3 | 0.00 | 0.00 | 0.00 | 34 | 1008.6 |
| 20260503215229 | 75 | 196 | 2.6 | 11.3 | 0.00 | 0.00 | 0.00 | 33 | 1008.6 |
| 20260503215130 | 76 | 204 | 2.6 | 11.3 | 0.00 | 0.00 | 0.00 | 34 | 1008.5 |
| 20260503215030 | 76 | 204 | 2.6 | 11.3 | 0.00 | 0.00 | 0.00 | 34 | 1008.5 |
| 20260503214930 | 76 | 207 | 2.6 | 11.3 | 0.00 | 0.00 | 0.00 | 33 | 1008.6 |
| 20260503214830 | 76 | 213 | 1.7 | 11.3 | 0.00 | 0.00 | 0.00 | 34 | 1008.5 |
| 20260503214729 | 76 | 215 | 1.7 | 8.7 | 0.00 | 0.00 | 0.00 | 35 | 1008.5 |
| 20260503214629 | 76 | 220 | 1.7 | 8.7 | 0.00 | 0.00 | 0.00 | 35 | 1008.6 |
| 20260503214530 | 75 | 219 | 1.7 | 8.7 | 0.00 | 0.00 | 0.00 | 35 | 1008.6 |
| 20260503214431 | 75 | 212 | 1.7 | 8.7 | 0.00 | 0.00 | 0.00 | 34 | 1008.5 |
| 20260503214329 | 75 | 210 | 1.7 | 8.7 | 0.00 | 0.00 | 0.00 | 34 | 1008.5 |
| 20260503214129 | 75 | 199 | 1.7 | 8.7 | 0.00 | 0.00 | 0.00 | 35 | 1008.5 |
| 20260503213930 | 75 | 196 | 2.6 | 8.7 | 0.00 | 0.00 | 0.00 | 34 | 1008.5 |
| 20260503213830 | 75 | 190 | 2.6 | 9.6 | 0.00 | 0.00 | 0.00 | 37 | 1008.6 |
| 20260503213730 | 75 | 189 | 2.6 | 9.6 | 0.00 | 0.00 | 0.00 | 35 | 1008.6 |
| 20260503213530 | 75 | 196 | 3.5 | 9.6 | 0.00 | 0.00 | 0.00 | 34 | 1008.6 |
| 20260503213430 | 75 | 201 | 3.5 | 9.6 | 0.00 | 0.00 | 0.00 | 34 | 1008.6 |
| 20260503213329 | 75 | 201 | 3.5 | 9.6 | 0.00 | 0.00 | 0.00 | 34 | 1008.6 |
| 20260503213230 | 75 | 198 | 3.5 | 9.6 | 0.00 | 0.00 | 0.00 | 37 | 1008.6 |
| 20260503213130 | 75 | 200 | 3.5 | 9.6 | 0.00 | 0.00 | 0.00 | 35 | 1008.6 |
| 20260503213030 | 75 | 195 | 3.5 | 9.6 | 0.00 | 0.00 | 0.00 | 34 | 1008.6 |
| 20260503212929 | 75 | 196 | 3.5 | 9.6 | 0.00 | 0.00 | 0.00 | 34 | 1008.7 |
| 20260503212829 | 75 | 198 | 3.5 | 8.7 | 0.00 | 0.00 | 0.00 | 34 | 1008.7 |
| 20260503212729 | 75 | 199 | 3.5 | 8.7 | 0.00 | 0.00 | 0.00 | 34 | 1008.7 |
| 20260503212630 | 75 | 199 | 3.5 | 8.7 | 0.00 | 0.00 | 0.00 | 36 | 1008.8 |
| 20260503212530 | 74 | 191 | 3.5 | 8.7 | 0.00 | 0.00 | 0.00 | 36 | 1008.8 |
| 20260503212229 | 74 | 192 | 2.6 | 8.7 | 0.00 | 0.00 | 0.00 | 34 | 1008.9 |
| 20260503212129 | 74 | 194 | 2.6 | 7.8 | 0.00 | 0.00 | 0.00 | 35 | 1008.8 |
| 20260503212030 | 74 | 200 | 2.6 | 7.8 | 0.00 | 0.00 | 0.00 | 34 | 1008.8 |
| 20260503211930 | 74 | 202 | 2.6 | 7.8 | 0.00 | 0.00 | 0.00 | 35 | 1008.9 |
| 20260503211830 | 75 | 200 | 2.6 | 8.7 | 0.00 | 0.00 | 0.00 | 35 | 1008.8 |
| 20260503211730 | 75 | 201 | 2.6 | 8.7 | 0.00 | 0.00 | 0.00 | 36 | 1008.9 |
| 20260503211629 | 74 | 196 | 2.6 | 8.7 | 0.00 | 0.00 | 0.00 | 36 | 1008.9 |
| 20260503211331 | 74 | 199 | 2.6 | 8.7 | 0.00 | 0.00 | 0.00 | 35 | 1008.9 |
| 20260503211230 | 74 | 200 | 2.6 | 8.7 | 0.00 | 0.00 | 0.00 | 35 | 1008.8 |
| 20260503211030 | 74 | 201 | 2.6 | 8.7 | 0.00 | 0.00 | 0.00 | 35 | 1009.0 |
| 20260503210729 | 74 | 206 | 2.6 | 7.8 | 0.00 | 0.00 | 0.00 | 34 | 1009.0 |
| 20260503210630 | 74 | 206 | 2.6 | 7.8 | 0.00 | 0.00 | 0.00 | 35 | 1009.0 |
| 20260503210429 | 74 | 194 | 3.5 | 9.6 | 0.00 | 0.00 | 0.00 | 35 | 1009.0 |
| 20260503210329 | 74 | 188 | 3.5 | 9.6 | 0.00 | 0.00 | 0.00 | 36 | 1009.0 |
| 20260503210229 | 74 | 187 | 3.5 | 9.6 | 0.00 | 0.00 | 0.00 | 35 | 1009.0 |
| 20260503210130 | 74 | 189 | 3.5 | 9.6 | 0.00 | 0.00 | 0.00 | 35 | 1009.0 |
| 20260503210030 | 74 | 186 | 3.5 | 9.6 | 0.00 | 0.00 | 0.00 | 35 | 1009.0 |
| 20260503205829 | 74 | 179 | 3.5 | 9.6 | 0.00 | 0.00 | 0.00 | 35 | 1009.1 |
| 20260503205730 | 74 | 176 | 2.6 | 9.6 | 0.00 | 0.00 | 0.00 | 35 | 1009.1 |
| 20260503205530 | 73 | 178 | 2.6 | 9.6 | 0.00 | 0.00 | 0.00 | 36 | 1009.2 |
| 20260503205329 | 73 | 177 | 2.6 | 8.7 | 0.00 | 0.00 | 0.00 | 36 | 1009.3 |
| 20260503205229 | 73 | 173 | 2.6 | 8.7 | 0.00 | 0.00 | 0.00 | 34 | 1009.4 |
| 20260503204930 | 73 | 177 | 2.6 | 7.8 | 0.00 | 0.00 | 0.00 | 36 | 1009.4 |
| 20260503204829 | 73 | 177 | 2.6 | 7.8 | 0.00 | 0.00 | 0.00 | 35 | 1009.4 |
| 20260503204729 | 73 | 178 | 2.6 | 7.8 | 0.00 | 0.00 | 0.00 | 35 | 1009.3 |
| 20260503204631 | 73 | 178 | 2.6 | 7.8 | 0.00 | 0.00 | 0.00 | 35 | 1009.5 |
| 20260503204530 | 73 | 175 | 2.6 | 7.8 | 0.00 | 0.00 | 0.00 | 36 | 1009.5 |
| 20260503204430 | 73 | 181 | 2.6 | 7.8 | 0.00 | 0.00 | 0.00 | 36 | 1009.4 |
| 20260503204330 | 73 | 183 | 2.6 | 7.8 | 0.00 | 0.00 | 0.00 | 34 | 1009.5 |
| 20260503204229 | 74 | 188 | 2.6 | 7.8 | 0.00 | 0.00 | 0.00 | 35 | 1009.6 |
| 20260503204130 | 74 | 187 | 2.6 | 7.8 | 0.00 | 0.00 | 0.00 | 35 | 1009.6 |
| 20260503204029 | 73 | 178 | 2.6 | 7.8 | 0.00 | 0.00 | 0.00 | 36 | 1009.5 |
| 20260503203929 | 73 | 182 | 2.6 | 7.8 | 0.00 | 0.00 | 0.00 | 35 | 1009.5 |
| 20260503203830 | 73 | 185 | 2.6 | 7.8 | 0.00 | 0.00 | 0.00 | 34 | 1009.6 |
| 20260503203529 | 73 | 198 | 2.6 | 6.1 | 0.00 | 0.00 | 0.00 | 34 | 1009.6 |
| 20260503203429 | 73 | 197 | 2.6 | 6.1 | 0.00 | 0.00 | 0.00 | 35 | 1009.6 |
| 20260503203329 | 73 | 200 | 2.6 | 6.1 | 0.00 | 0.00 | 0.00 | 35 | 1009.7 |
| 20260503203230 | 73 | 201 | 2.6 | 6.1 | 0.00 | 0.00 | 0.00 | 34 | 1009.8 |
| 20260503203131 | 74 | 208 | 2.6 | 6.1 | 0.00 | 0.00 | 0.00 | 34 | 1010.0 |
| 20260503203029 | 74 | 222 | 2.6 | 5.2 | 0.00 | 0.00 | 0.00 | 34 | 1009.9 |
| 20260503202830 | 73 | 213 | 2.6 | 7.8 | 0.00 | 0.00 | 0.00 | 37 | 1010.0 |
| 20260503202730 | 73 | 203 | 2.6 | 7.8 | 0.00 | 0.00 | 0.00 | 36 | 1009.9 |
| 20260503202530 | 73 | 191 | 3.5 | 7.8 | 0.00 | 0.00 | 0.00 | 36 | 1010.0 |
| 20260503202429 | 73 | 187 | 3.5 | 7.8 | 0.00 | 0.00 | 0.00 | 35 | 1010.0 |
| 20260503202330 | 72 | 183 | 3.5 | 7.8 | 0.00 | 0.00 | 0.00 | 35 | 1010.0 |
| 20260503202230 | 72 | 176 | 3.5 | 7.8 | 0.00 | 0.00 | 0.00 | 35 | 1010.0 |
| 20260503202130 | 72 | 171 | 3.5 | 7.8 | 0.00 | 0.00 | 0.00 | 35 | 1010.1 |
| 20260503202029 | 72 | 172 | 3.5 | 7.8 | 0.00 | 0.00 | 0.00 | 38 | 1010.0 |
| 20260503201929 | 72 | 172 | 2.6 | 6.1 | 0.00 | 0.00 | 0.00 | 35 | 1010.0 |
| 20260503201829 | 72 | 171 | 2.6 | 6.1 | 0.00 | 0.00 | 0.00 | 35 | 1010.1 |
| 20260503201530 | 72 | 169 | 2.6 | 6.1 | 0.00 | 0.00 | 0.00 | 35 | 1010.1 |
| 20260503201429 | 72 | 170 | 2.6 | 6.1 | 0.00 | 0.00 | 0.00 | 35 | 1010.2 |
| 20260503201329 | 72 | 171 | 2.6 | 6.1 | 0.00 | 0.00 | 0.00 | 36 | 1010.3 |
| 20260503201229 | 72 | 176 | 3.5 | 6.1 | 0.00 | 0.00 | 0.00 | 36 | 1010.2 |
| 20260503201130 | 72 | 178 | 3.5 | 11.3 | 0.00 | 0.00 | 0.00 | 36 | 1010.3 |
| 20260503201029 | 72 | 175 | 2.6 | 11.3 | 0.00 | 0.00 | 0.00 | 36 | 1010.3 |
| 20260503200929 | 72 | 175 | 2.6 | 11.3 | 0.00 | 0.00 | 0.00 | 36 | 1010.4 |
| 20260503200829 | 72 | 173 | 2.6 | 11.3 | 0.00 | 0.00 | 0.00 | 36 | 1010.3 |
| 20260503200731 | 72 | 176 | 3.5 | 11.3 | 0.00 | 0.00 | 0.00 | 35 | 1010.4 |
| 20260503200629 | 72 | 177 | 3.5 | 11.3 | 0.00 | 0.00 | 0.00 | 35 | 1010.4 |
| 20260503200529 | 72 | 179 | 2.6 | 11.3 | 0.00 | 0.00 | 0.00 | 36 | 1010.4 |
| 20260503200429 | 72 | 184 | 2.6 | 11.3 | 0.00 | 0.00 | 0.00 | 36 | 1010.5 |
| 20260503200330 | 72 | 189 | 2.6 | 11.3 | 0.00 | 0.00 | 0.00 | 36 | 1010.3 |
| 20260503200229 | 72 | 191 | 2.6 | 11.3 | 0.00 | 0.00 | 0.00 | 36 | 1010.5 |
| 20260503200129 | 72 | 195 | 2.6 | 8.7 | 0.00 | 0.00 | 0.00 | 36 | 1010.5 |
| 20260503200029 | 72 | 200 | 2.6 | 8.7 | 0.00 | 0.00 | 0.00 | 35 | 1010.5 |
| 20260503195929 | 72 | 196 | 3.5 | 8.7 | 0.00 | 0.00 | 0.00 | 36 | 1010.6 |
| 20260503195831 | 72 | 194 | 3.5 | 8.7 | 0.00 | 0.00 | 0.00 | 36 | 1010.5 |
| 20260503195729 | 72 | 194 | 2.6 | 8.7 | 0.00 | 0.00 | 0.00 | 36 | 1010.6 |
| 20260503195629 | 72 | 193 | 2.6 | 8.7 | 0.00 | 0.00 | 0.00 | 38 | 1010.6 |
| 20260503195529 | 72 | 191 | 2.6 | 8.7 | 0.00 | 0.00 | 0.00 | 36 | 1010.5 |
| 20260503195429 | 72 | 188 | 2.6 | 8.7 | 0.00 | 0.00 | 0.00 | 36 | 1010.6 |
| 20260503195331 | 72 | 182 | 3.5 | 8.7 | 0.00 | 0.00 | 0.00 | 37 | 1010.6 |
| 20260503195229 | 72 | 176 | 2.6 | 8.7 | 0.00 | 0.00 | 0.00 | 35 | 1010.7 |
| 20260503195129 | 72 | 174 | 2.6 | 8.7 | 0.00 | 0.00 | 0.00 | 36 | 1010.6 |
| 20260503194930 | 72 | 172 | 2.6 | 6.1 | 0.00 | 0.00 | 0.00 | 36 | 1010.7 |
| 20260503194829 | 72 | 173 | 2.6 | 6.1 | 0.00 | 0.00 | 0.00 | 36 | 1010.8 |
| 20260503194730 | 72 | 178 | 2.6 | 6.1 | 0.00 | 0.00 | 0.00 | 35 | 1010.7 |
| 20260503194630 | 72 | 187 | 2.6 | 6.1 | 0.00 | 0.00 | 0.00 | 35 | 1010.9 |
| 20260503194530 | 72 | 197 | 2.6 | 7.8 | 0.00 | 0.00 | 0.00 | 35 | 1010.9 |
| 20260503194330 | 72 | 211 | 2.6 | 7.8 | 0.00 | 0.00 | 0.00 | 36 | 1010.9 |
| 20260503194230 | 71 | 222 | 2.6 | 7.8 | 0.00 | 0.00 | 0.00 | 36 | 1011.0 |
| 20260503194129 | 71 | 224 | 2.6 | 7.8 | 0.00 | 0.00 | 0.00 | 35 | 1011.1 |
| 20260503194030 | 71 | 226 | 3.5 | 10.4 | 0.00 | 0.00 | 0.00 | 35 | 1011.1 |
| 20260503193830 | 72 | 223 | 3.5 | 10.4 | 0.00 | 0.00 | 0.00 | 36 | 1011.1 |
| 20260503193729 | 71 | 215 | 3.5 | 10.4 | 0.00 | 0.00 | 0.00 | 35 | 1011.0 |
| 20260503193630 | 71 | 204 | 3.5 | 10.4 | 0.00 | 0.00 | 0.00 | 36 | 1011.1 |
| 20260503193528 | 71 | 197 | 3.5 | 10.4 | 0.00 | 0.00 | 0.00 | 36 | 1011.1 |
| 20260503193329 | 71 | 187 | 3.5 | 10.4 | 0.00 | 0.00 | 0.00 | 34 | 1011.2 |
| 20260503193230 | 71 | 187 | 3.5 | 10.4 | 0.00 | 0.00 | 0.00 | 37 | 1011.2 |
| 20260503193129 | 71 | 184 | 3.5 | 10.4 | 0.00 | 0.00 | 0.00 | 36 | 1011.2 |
| 20260503193029 | 71 | 181 | 3.5 | 8.7 | 0.00 | 0.00 | 0.00 | 35 | 1011.2 |
| 20260503192830 | 71 | 190 | 3.5 | 8.7 | 0.00 | 0.00 | 0.00 | 36 | 1011.3 |
| 20260503192729 | 71 | 195 | 3.5 | 8.7 | 0.00 | 0.00 | 0.00 | 37 | 1011.3 |
| 20260503192629 | 71 | 199 | 3.5 | 8.7 | 0.00 | 0.00 | 0.00 | 37 | 1011.5 |
| 20260503192530 | 71 | 206 | 3.5 | 8.7 | 0.00 | 0.00 | 0.00 | 37 | 1011.6 |
| 20260503192430 | 71 | 208 | 3.5 | 8.7 | 0.00 | 0.00 | 0.00 | 37 | 1011.5 |
| 20260503192229 | 71 | 200 | 3.5 | 8.7 | 0.00 | 0.00 | 0.00 | 36 | 1011.6 |
| 20260503192129 | 71 | 200 | 3.5 | 8.7 | 0.00 | 0.00 | 0.00 | 34 | 1011.6 |
| 20260503192028 | 71 | 204 | 3.5 | 8.7 | 0.00 | 0.00 | 0.00 | 34 | 1011.6 |
| 20260503191929 | 71 | 199 | 3.5 | 9.6 | 0.00 | 0.00 | 0.00 | 38 | 1011.6 |
| 20260503191829 | 71 | 192 | 3.5 | 9.6 | 0.00 | 0.00 | 0.00 | 36 | 1011.6 |
| 20260503191729 | 70 | 190 | 4.3 | 9.6 | 0.00 | 0.00 | 0.00 | 37 | 1011.6 |
| 20260503191629 | 70 | 188 | 4.3 | 10.4 | 0.00 | 0.00 | 0.00 | 36 | 1011.7 |
| 20260503191429 | 70 | 182 | 4.3 | 12.2 | 0.00 | 0.00 | 0.00 | 37 | 1011.7 |
| 20260503191229 | 70 | 186 | 4.3 | 12.2 | 0.00 | 0.00 | 0.00 | 38 | 1011.7 |
| 20260503190930 | 70 | 176 | 5.2 | 12.2 | 0.00 | 0.00 | 0.00 | 37 | 1011.7 |
| 20260503190829 | 70 | 174 | 5.2 | 12.2 | 0.00 | 0.00 | 0.00 | 36 | 1011.7 |
| 20260503190729 | 70 | 175 | 4.3 | 12.2 | 0.00 | 0.00 | 0.00 | 36 | 1011.8 |
| 20260503190529 | 70 | 182 | 4.3 | 12.2 | 0.00 | 0.00 | 0.00 | 36 | 1011.8 |
| 20260503190429 | 70 | 183 | 4.3 | 10.4 | 0.00 | 0.00 | 0.00 | 36 | 1011.9 |
| 20260503190330 | 70 | 183 | 4.3 | 10.4 | 0.00 | 0.00 | 0.00 | 35 | 1011.9 |
| 20260503190129 | 70 | 184 | 3.5 | 10.4 | 0.00 | 0.00 | 0.00 | 36 | 1012.1 |
| 20260503185930 | 70 | 190 | 2.6 | 10.4 | 0.00 | 0.00 | 0.00 | 36 | 1012.2 |
| 20260503185829 | 70 | 196 | 2.6 | 10.4 | 0.00 | 0.00 | 0.00 | 37 | 1012.1 |
| 20260503185729 | 70 | 192 | 2.6 | 7.8 | 0.00 | 0.00 | 0.00 | 37 | 1012.2 |
| 20260503185528 | 70 | 190 | 2.6 | 10.4 | 0.00 | 0.00 | 0.00 | 38 | 1012.2 |
| 20260503185429 | 70 | 195 | 2.6 | 10.4 | 0.00 | 0.00 | 0.00 | 37 | 1012.2 |
| 20260503185330 | 69 | 202 | 3.5 | 10.4 | 0.00 | 0.00 | 0.00 | 37 | 1012.3 |
| 20260503185229 | 69 | 209 | 3.5 | 10.4 | 0.00 | 0.00 | 0.00 | 37 | 1012.3 |
| 20260503185130 | 69 | 207 | 3.5 | 10.4 | 0.00 | 0.00 | 0.00 | 36 | 1012.4 |
| 20260503185029 | 69 | 212 | 3.5 | 10.4 | 0.00 | 0.00 | 0.00 | 37 | 1012.5 |
| 20260503184829 | 69 | 223 | 3.5 | 10.4 | 0.00 | 0.00 | 0.00 | 37 | 1012.6 |
| 20260503184730 | 69 | 224 | 2.6 | 10.4 | 0.00 | 0.00 | 0.00 | 37 | 1012.7 |
| 20260503184629 | 69 | 232 | 2.6 | 7.8 | 0.00 | 0.00 | 0.00 | 39 | 1012.7 |
| 20260503184529 | 69 | 227 | 2.6 | 7.8 | 0.00 | 0.00 | 0.00 | 37 | 1012.7 |
| 20260503184428 | 69 | 223 | 2.6 | 7.8 | 0.00 | 0.00 | 0.00 | 37 | 1012.6 |
| 20260503184230 | 69 | 220 | 2.6 | 7.8 | 0.00 | 0.00 | 0.00 | 38 | 1012.7 |
| 20260503184129 | 69 | 222 | 2.6 | 7.8 | 0.00 | 0.00 | 0.00 | 38 | 1012.6 |
| 20260503184029 | 69 | 223 | 2.6 | 7.8 | 0.00 | 0.00 | 0.00 | 39 | 1012.7 |
| 20260503183930 | 69 | 214 | 2.6 | 7.8 | 0.00 | 0.00 | 0.00 | 38 | 1012.7 |
| 20260503183829 | 69 | 208 | 2.6 | 7.8 | 0.00 | 0.00 | 0.00 | 38 | 1012.7 |
| 20260503183729 | 68 | 206 | 3.5 | 7.8 | 0.00 | 0.00 | 0.00 | 37 | 1012.7 |
| 20260503183628 | 68 | 205 | 3.5 | 7.8 | 0.00 | 0.00 | 0.00 | 37 | 1012.7 |
| 20260503183528 | 68 | 205 | 3.5 | 7.8 | 0.00 | 0.00 | 0.00 | 37 | 1012.7 |
| 20260503183428 | 68 | 210 | 3.5 | 7.8 | 0.00 | 0.00 | 0.00 | 38 | 1012.7 |
| 20260503183329 | 68 | 209 | 2.6 | 7.8 | 0.00 | 0.00 | 0.00 | 37 | 1012.7 |
| 20260503183229 | 68 | 206 | 2.6 | 7.8 | 0.00 | 0.00 | 0.00 | 40 | 1012.8 |
| 20260503183029 | 68 | 201 | 2.6 | 7.8 | 0.00 | 0.00 | 0.00 | 37 | 1012.9 |
| 20260503182929 | 68 | 208 | 2.6 | 7.8 | 0.00 | 0.00 | 0.00 | 39 | 1013.0 |
| 20260503182729 | 68 | 215 | 2.6 | 7.8 | 0.00 | 0.00 | 0.00 | 36 | 1013.1 |
| 20260503182628 | 68 | 221 | 2.6 | 6.1 | 0.00 | 0.00 | 0.00 | 37 | 1013.1 |
| 20260503182529 | 68 | 225 | 2.6 | 6.1 | 0.00 | 0.00 | 0.00 | 38 | 1013.2 |
| 20260503182429 | 68 | 222 | 2.6 | 6.1 | 0.00 | 0.00 | 0.00 | 38 | 1013.2 |
| 20260503182229 | 69 | 222 | 2.6 | 6.1 | 0.00 | 0.00 | 0.00 | 37 | 1013.3 |
| 20260503182128 | 69 | 231 | 2.6 | 7.8 | 0.00 | 0.00 | 0.00 | 38 | 1013.3 |
| 20260503182028 | 69 | 235 | 2.6 | 7.8 | 0.00 | 0.00 | 0.00 | 38 | 1013.4 |
| 20260503181830 | 68 | 233 | 2.6 | 7.8 | 0.00 | 0.00 | 0.00 | 42 | 1013.4 |
| 20260503181729 | 68 | 229 | 2.6 | 7.8 | 0.00 | 0.00 | 0.00 | 42 | 1013.4 |
| 20260503181630 | 67 | 211 | 2.6 | 8.7 | 0.00 | 0.00 | 0.00 | 38 | 1013.5 |
| 20260503181529 | 68 | 209 | 2.6 | 8.7 | 0.00 | 0.00 | 0.00 | 38 | 1013.4 |
| 20260503181429 | 68 | 209 | 2.6 | 8.7 | 0.00 | 0.00 | 0.00 | 38 | 1013.5 |
| 20260503181329 | 68 | 212 | 2.6 | 8.7 | 0.00 | 0.00 | 0.00 | 39 | 1013.5 |
| 20260503181128 | 68 | 206 | 2.6 | 8.7 | 0.00 | 0.00 | 0.00 | 37 | 1013.6 |
| 20260503181029 | 68 | 200 | 2.6 | 8.7 | 0.00 | 0.00 | 0.00 | 39 | 1013.7 |
| 20260503180929 | 68 | 191 | 2.6 | 8.7 | 0.00 | 0.00 | 0.00 | 37 | 1013.7 |
| 20260503180829 | 68 | 189 | 2.6 | 8.7 | 0.00 | 0.00 | 0.00 | 37 | 1013.7 |
| 20260503180729 | 68 | 188 | 2.6 | 8.7 | 0.00 | 0.00 | 0.00 | 38 | 1013.7 |
| 20260503180629 | 68 | 193 | 2.6 | 8.7 | 0.00 | 0.00 | 0.00 | 40 | 1013.7 |
| 20260503180528 | 68 | 194 | 2.6 | 8.7 | 0.00 | 0.00 | 0.00 | 40 | 1013.7 |
| 20260503180429 | 68 | 198 | 3.5 | 8.7 | 0.00 | 0.00 | 0.00 | 43 | 1013.7 |
| 20260503180329 | 67 | 196 | 3.5 | 8.7 | 0.00 | 0.00 | 0.00 | 40 | 1013.8 |
| 20260503180229 | 67 | 189 | 3.5 | 9.6 | 0.00 | 0.00 | 0.00 | 40 | 1013.8 |
| 20260503180128 | 67 | 184 | 3.5 | 9.6 | 0.00 | 0.00 | 0.00 | 38 | 1013.8 |
| 20260503180029 | 67 | 182 | 3.5 | 9.6 | 0.00 | 0.00 | 0.00 | 39 | 1013.8 |
| 20260503175929 | 67 | 188 | 3.5 | 9.6 | 0.00 | 0.00 | 0.00 | 39 | 1013.8 |
| 20260503175728 | 67 | 189 | 2.6 | 9.6 | 0.00 | 0.00 | 0.00 | 40 | 1013.9 |
| 20260503175628 | 67 | 196 | 3.5 | 9.6 | 0.00 | 0.00 | 0.00 | 42 | 1013.9 |
| 20260503175529 | 67 | 194 | 3.5 | 9.6 | 0.00 | 0.00 | 0.00 | 39 | 1013.9 |
| 20260503175329 | 67 | 189 | 2.6 | 9.6 | 0.00 | 0.00 | 0.00 | 39 | 1014.1 |
| 20260503175228 | 67 | 188 | 2.6 | 8.7 | 0.00 | 0.00 | 0.00 | 39 | 1014.1 |
| 20260503175128 | 67 | 190 | 2.6 | 8.7 | 0.00 | 0.00 | 0.00 | 40 | 1014.2 |
| 20260503175028 | 67 | 195 | 3.5 | 8.7 | 0.00 | 0.00 | 0.00 | 40 | 1014.2 |
| 20260503174929 | 67 | 199 | 3.5 | 8.7 | 0.00 | 0.00 | 0.00 | 41 | 1014.2 |
| 20260503174830 | 67 | 201 | 3.5 | 8.7 | 0.00 | 0.00 | 0.00 | 41 | 1014.3 |
| 20260503174728 | 66 | 202 | 3.5 | 8.7 | 0.00 | 0.00 | 0.00 | 44 | 1014.1 |
| 20260503174628 | 66 | 197 | 3.5 | 8.7 | 0.00 | 0.00 | 0.00 | 39 | 1014.2 |
| 20260503174528 | 66 | 198 | 3.5 | 7.8 | 0.00 | 0.00 | 0.00 | 40 | 1014.2 |
| 20260503174330 | 66 | 210 | 2.6 | 7.8 | 0.00 | 0.00 | 0.00 | 39 | 1014.3 |
| 20260503174228 | 66 | 220 | 2.6 | 7.8 | 0.00 | 0.00 | 0.00 | 39 | 1014.4 |
| 20260503174028 | 67 | 228 | 2.6 | 7.8 | 0.00 | 0.00 | 0.00 | 39 | 1014.5 |
| 20260503173929 | 67 | 225 | 2.6 | 7.8 | 0.00 | 0.00 | 0.00 | 39 | 1014.5 |
| 20260503173828 | 67 | 218 | 2.6 | 7.8 | 0.00 | 0.00 | 0.00 | 39 | 1014.6 |
| 20260503173728 | 67 | 224 | 2.6 | 7.8 | 0.00 | 0.00 | 0.00 | 42 | 1014.7 |
| 20260503173528 | 67 | 240 | 2.6 | 7.8 | 0.00 | 0.00 | 0.00 | 42 | 1014.7 |
| 20260503173428 | 66 | 241 | 2.6 | 7.8 | 0.00 | 0.00 | 0.00 | 42 | 1014.6 |
| 20260503173228 | 66 | 238 | 2.6 | 7.8 | 0.00 | 0.00 | 0.00 | 41 | 1014.8 |
| 20260503173128 | 66 | 238 | 2.6 | 7.8 | 0.00 | 0.00 | 0.00 | 40 | 1014.8 |
| 20260503173028 | 66 | 234 | 2.6 | 7.8 | 0.00 | 0.00 | 0.00 | 40 | 1014.8 |
| 20260503172928 | 66 | 236 | 2.6 | 7.8 | 0.00 | 0.00 | 0.00 | 39 | 1014.8 |
| 20260503172829 | 66 | 233 | 2.6 | 7.8 | 0.00 | 0.00 | 0.00 | 40 | 1014.8 |
| 20260503172728 | 66 | 233 | 2.6 | 8.7 | 0.00 | 0.00 | 0.00 | 39 | 1014.8 |
| 20260503172528 | 66 | 222 | 2.6 | 8.7 | 0.00 | 0.00 | 0.00 | 43 | 1014.9 |
| 20260503172428 | 66 | 212 | 2.6 | 8.7 | 0.00 | 0.00 | 0.00 | 43 | 1014.8 |
| 20260503172228 | 66 | 193 | 3.5 | 13.9 | 0.00 | 0.00 | 0.00 | 40 | 1014.8 |
| 20260503172028 | 66 | 200 | 3.5 | 13.9 | 0.00 | 0.00 | 0.00 | 44 | 1014.9 |
| 20260503171928 | 66 | 195 | 3.5 | 13.9 | 0.00 | 0.00 | 0.00 | 42 | 1014.8 |
| 20260503171829 | 65 | 195 | 3.5 | 13.9 | 0.00 | 0.00 | 0.00 | 40 | 1014.9 |
| 20260503171728 | 65 | 190 | 3.5 | 13.9 | 0.00 | 0.00 | 0.00 | 40 | 1015.0 |
| 20260503171628 | 65 | 186 | 3.5 | 13.9 | 0.00 | 0.00 | 0.00 | 41 | 1015.0 |
| 20260503171529 | 65 | 189 | 3.5 | 13.9 | 0.00 | 0.00 | 0.00 | 41 | 1014.9 |
| 20260503171429 | 65 | 192 | 2.6 | 13.9 | 0.00 | 0.00 | 0.00 | 40 | 1015.0 |
| 20260503171328 | 65 | 197 | 2.6 | 13.9 | 0.00 | 0.00 | 0.00 | 40 | 1015.0 |
| 20260503171228 | 66 | 200 | 2.6 | 6.1 | 0.00 | 0.00 | 0.00 | 42 | 1015.1 |
| 20260503171128 | 65 | 198 | 2.6 | 6.1 | 0.00 | 0.00 | 0.00 | 42 | 1015.2 |
| 20260503171028 | 65 | 193 | 2.6 | 6.1 | 0.00 | 0.00 | 0.00 | 41 | 1015.3 |
| 20260503170928 | 65 | 197 | 2.6 | 6.1 | 0.00 | 0.00 | 0.00 | 39 | 1015.3 |
| 20260503170828 | 65 | 203 | 2.6 | 6.1 | 0.00 | 0.00 | 0.00 | 39 | 1015.4 |
| 20260503170728 | 65 | 203 | 2.6 | 6.1 | 0.00 | 0.00 | 0.00 | 40 | 1015.3 |
| 20260503170628 | 65 | 200 | 2.6 | 9.6 | 0.00 | 0.00 | 0.00 | 43 | 1015.4 |
| 20260503170528 | 65 | 189 | 2.6 | 11.3 | 0.00 | 0.00 | 0.00 | 41 | 1015.4 |
| 20260503170328 | 65 | 189 | 3.5 | 11.3 | 0.00 | 0.00 | 0.00 | 43 | 1015.4 |
| 20260503170229 | 65 | 189 | 3.5 | 11.3 | 0.00 | 0.00 | 0.00 | 43 | 1015.4 |
| 20260503170128 | 65 | 192 | 3.5 | 11.3 | 0.00 | 0.00 | 0.00 | 42 | 1015.4 |